»·PEaware :: N493NT L88-KSBP

N493NT :: L88-KSBP

FLIGHT INFORMATION

Flight Status: Arrived
Operator: Privately registered:
United States
More flights under this callsign
Pilot: Diana T. (22608)
Aircraft: CESSNA T210 TURBO CENTURION
(T210)
More flights by this aircraft type
Origin: L88 New Cuyama
United States
Destination: KSBP San Luis Co Regl
United States
More flights between these airports :: More routes between these airports
Route: VFR WEST
File this flight plan on PilotEdge
Remarks: CAT-02 flight
Altitude:
(Current/Filed)
4,500ft
Speed:
(Current/Filed)
150kts
Departed: 27-Dec-18 11:11 AM
Arrived: 27-Dec-18 11:38 AM
Distance/Time
Traveled:
50nm/0:26
Distance/Time
To Go:
Arrived

Flight Plot

Page will automatically refresh every two minutes.

Flight plan parsing failed; only flown route is shown


Map Options




Map Legend


Flown Route
Filed Route
Departure Airport
Arrival Airport
Navaid (VOR, NDB)
Fix

Horizontal Profiles

Position Reports

Time Latitude Longitude Heading Altitude Ground
Speed
27-Dec-18 10:48 34.942830 -119.690299 202 2155ft 0kts
27-Dec-18 10:49 34.942830 -119.690299 202 2155ft 0kts
27-Dec-18 10:50 34.942830 -119.690299 202 2155ft 0kts
27-Dec-18 10:51 34.942830 -119.690299 202 2155ft 0kts
27-Dec-18 10:52 34.942830 -119.690299 202 2155ft 0kts
27-Dec-18 10:53 34.942830 -119.690299 202 2155ft 0kts
27-Dec-18 10:54 34.942830 -119.690299 202 2155ft 0kts
27-Dec-18 10:55 34.942830 -119.690299 202 2155ft 0kts
27-Dec-18 10:56 34.942830 -119.690299 202 2155ft 0kts
27-Dec-18 10:57 34.942830 -119.690299 202 2155ft 0kts
27-Dec-18 10:58 34.942830 -119.690299 202 2155ft 0kts
27-Dec-18 10:59 34.942830 -119.690299 202 2155ft 0kts
27-Dec-18 11:00 34.942830 -119.690299 202 2155ft 0kts
27-Dec-18 11:01 34.942830 -119.690299 202 2155ft 0kts
27-Dec-18 11:02 34.942830 -119.690299 202 2155ft 0kts
27-Dec-18 11:03 34.942830 -119.690299 202 2155ft 0kts
27-Dec-18 11:04 34.942801 -119.690318 210 2155ft 2kts
27-Dec-18 11:05 34.942480 -119.691156 154 2151ft 0kts
27-Dec-18 11:06 34.942433 -119.691129 154 2151ft 2kts
27-Dec-18 11:07 34.941330 -119.688961 120 2160ft 11kts
27-Dec-18 11:08 34.939734 -119.685069 119 2175ft 14kts
27-Dec-18 11:09 34.937998 -119.680894 116 2194ft 11kts
27-Dec-18 11:10 34.939711 -119.685211 292 2245ft 83kts
27-Dec-18 11:11 34.951517 -119.718267 295 3393ft 124kts
27-Dec-18 11:12 34.968907 -119.754457 300 4363ft 125kts
27-Dec-18 11:13 34.987323 -119.793182 302 4421ft 134kts
27-Dec-18 11:14 35.001174 -119.833709 296 4423ft 127kts
27-Dec-18 11:15 35.014062 -119.873829 296 4391ft 126kts
27-Dec-18 11:16 35.026116 -119.913689 298 4452ft 120kts
27-Dec-18 11:17 35.040456 -119.951494 300 4436ft 121kts
27-Dec-18 11:18 35.055931 -119.987965 304 4440ft 122kts
27-Dec-18 11:19 35.072847 -120.024402 304 4409ft 122kts
27-Dec-18 11:20 35.083060 -120.064861 287 4357ft 131kts
27-Dec-18 11:21 35.092503 -120.106795 288 4469ft 130kts
27-Dec-18 11:22 35.101326 -120.148124 293 4478ft 123kts
27-Dec-18 11:23 35.112415 -120.185994 290 4553ft 124kts
27-Dec-18 11:24 35.120806 -120.226813 295 4526ft 126kts
27-Dec-18 11:25 35.131800 -120.270691 290 4548ft 130kts
27-Dec-18 11:26 35.139423 -120.313840 293 4445ft 130kts
27-Dec-18 11:27 35.150723 -120.354024 302 4545ft 119kts
27-Dec-18 11:28 35.161109 -120.394682 294 4464ft 124kts
27-Dec-18 11:29 35.164797 -120.437548 288 4476ft 127kts
27-Dec-18 11:30 35.168090 -120.480372 285 3741ft 115kts
27-Dec-18 11:31 35.174705 -120.517951 295 2822ft 113kts
27-Dec-18 11:32 35.185972 -120.551551 306 2114ft 93kts
27-Dec-18 11:33 35.199632 -120.576097 313 1691ft 78kts
27-Dec-18 11:34 35.211461 -120.595634 310 1106ft 65kts
27-Dec-18 11:35 35.220870 -120.612678 310 801ft 59kts
27-Dec-18 11:36 35.231315 -120.630523 314 369ft 62kts
27-Dec-18 11:37 35.237421 -120.639928 7 216ft 0kts
27-Dec-18 11:38 35.237784 -120.640046 316 216ft 5kts
27-Dec-18 11:39 35.238711 -120.641188 73 216ft 0kts
27-Dec-18 11:40 35.238711 -120.641188 73 216ft 0kts
27-Dec-18 11:41 35.238711 -120.641188 73 216ft 0kts

Navigation Log

Ident Type
Flight plan parsing failed, navigation log unavailable